Terminal Aerodrome Forecast
Issued by NWS Charleston, WV

Current Version | Previous Version | Graphics & Text | Print | Product List | Glossary On
Versions: 1 2 3 4 5 6 7 8 9 10 11 12 13 14 15 16 17 18 19 20 21 22 23 24 25 26
169
FTUS41 KRLX 300251 AAC
TAFEKN
TAF AMD
KEKN 300251Z 3003/3024 00000KT P6SM SCT250
     FM300700 00000KT 3SM BR FEW250
     FM301200 00000KT P6SM FEW250
     FM301800 21006KT P6SM SCT250=

USA.gov is the U.S. government's official web portal to all federal, state and local government web resources and services.